createdAt,value
2023-05-10T00:00:48.781Z,745.00
2023-05-10T00:01:48.812Z,739.00
2023-05-10T00:02:48.892Z,742.00
2023-05-10T00:03:49.053Z,749.00
2023-05-10T00:04:48.918Z,738.00
2023-05-10T00:05:49.030Z,749.00
2023-05-10T00:06:49.014Z,736.00
2023-05-10T00:07:49.062Z,736.00
2023-05-10T00:08:49.129Z,734.00
2023-05-10T00:09:49.123Z,739.00
2023-05-10T00:10:49.657Z,735.00
2023-05-10T00:11:49.265Z,744.00
2023-05-10T00:12:49.369Z,750.00
2023-05-10T00:13:49.375Z,743.00
2023-05-10T00:14:49.488Z,740.00
2023-05-10T00:15:49.476Z,746.00
2023-05-10T00:16:49.572Z,736.00
2023-05-10T00:17:49.686Z,737.00
2023-05-10T00:18:49.624Z,727.00
2023-05-10T00:19:49.608Z,735.00
2023-05-10T00:20:49.683Z,731.00
2023-05-10T00:21:49.743Z,742.00
2023-05-10T00:22:49.746Z,737.00
2023-05-10T00:23:49.774Z,736.00
2023-05-10T00:24:49.858Z,743.00
2023-05-10T00:25:49.895Z,732.00
2023-05-10T00:26:49.974Z,730.00
2023-05-10T00:27:50.018Z,731.00
2023-05-10T00:28:50.019Z,750.00
2023-05-10T00:29:50.084Z,737.00
2023-05-10T00:30:50.123Z,736.00
2023-05-10T00:31:50.290Z,729.00
2023-05-10T00:32:50.274Z,729.00
2023-05-10T00:33:50.306Z,734.00
2023-05-10T00:34:50.329Z,732.00
2023-05-10T00:35:50.370Z,739.00
2023-05-10T00:36:50.440Z,740.00
2023-05-10T00:37:50.494Z,737.00
2023-05-10T00:38:50.569Z,745.00
2023-05-10T00:39:50.563Z,734.00
2023-05-10T00:40:50.615Z,731.00
2023-05-10T00:41:50.682Z,731.00
2023-05-10T00:42:50.723Z,734.00
2023-05-10T00:43:50.807Z,741.00
2023-05-10T00:44:50.848Z,735.00
2023-05-10T00:45:50.905Z,744.00
2023-05-10T00:46:50.953Z,727.00
2023-05-10T00:47:51.056Z,737.00
2023-05-10T00:48:51.034Z,734.00
2023-05-10T00:49:51.096Z,716.00
2023-05-10T00:50:51.142Z,737.00
2023-05-10T00:51:51.274Z,716.00
2023-05-10T00:52:51.282Z,723.00
2023-05-10T00:53:51.310Z,728.00
2023-05-10T00:54:51.392Z,717.00
2023-05-10T00:55:51.447Z,716.00
2023-05-10T00:56:51.541Z,731.00
2023-05-10T00:57:51.548Z,730.00
2023-05-10T00:58:51.640Z,724.00
2023-05-10T00:59:51.658Z,738.00
2023-05-10T01:00:51.866Z,721.00
2023-05-10T01:01:51.901Z,739.00
2023-05-10T01:02:51.947Z,710.00
2023-05-10T01:03:51.903Z,720.00
2023-05-10T01:04:52.049Z,731.00
2023-05-10T01:05:52.016Z,733.00
2023-05-10T01:06:52.086Z,733.00
2023-05-10T01:07:52.196Z,729.00
2023-05-10T01:08:52.214Z,734.00
2023-05-10T01:09:52.274Z,732.00
2023-05-10T01:10:52.317Z,726.00
2023-05-10T01:11:52.415Z,714.00
2023-05-10T01:12:52.457Z,730.00
2023-05-10T01:13:52.541Z,718.00
2023-05-10T01:14:52.604Z,725.00
2023-05-10T01:15:52.729Z,723.00
2023-05-10T01:16:52.718Z,725.00
2023-05-10T01:17:52.780Z,722.00
2023-05-10T01:18:52.850Z,718.00
2023-05-10T01:19:52.898Z,726.00
2023-05-10T01:20:52.958Z,722.00
2023-05-10T01:21:53.012Z,718.00
2023-05-10T01:22:53.134Z,719.00
2023-05-10T01:23:53.156Z,734.00
2023-05-10T01:24:53.238Z,734.00
2023-05-10T01:25:53.248Z,730.00
2023-05-10T01:26:53.357Z,739.00
2023-05-10T01:27:53.358Z,729.00
2023-05-10T01:28:53.473Z,727.00
2023-05-10T01:30:05.069Z,748.00
2023-05-10T01:30:54.553Z,749.00
2023-05-10T01:31:53.486Z,740.00
2023-05-10T01:32:53.536Z,732.00
2023-05-10T01:33:53.500Z,737.00
2023-05-10T01:34:53.461Z,731.00
2023-05-10T01:35:53.474Z,727.00
2023-05-10T01:36:53.476Z,724.00
2023-05-10T01:37:53.430Z,731.00
2023-05-10T01:38:53.440Z,734.00
2023-05-10T01:39:53.516Z,739.00
2023-05-10T01:40:53.565Z,734.00
2023-05-10T01:41:53.598Z,736.00
2023-05-10T01:42:53.679Z,736.00
2023-05-10T01:43:53.716Z,733.00
2023-05-10T01:44:53.783Z,734.00
2023-05-10T01:45:53.896Z,736.00
2023-05-10T01:46:53.996Z,738.00
2023-05-10T01:47:53.984Z,732.00
2023-05-10T01:48:54.052Z,736.00
2023-05-10T01:49:54.156Z,734.00
2023-05-10T01:50:54.171Z,742.00
2023-05-10T01:51:54.251Z,736.00
2023-05-10T01:52:54.359Z,738.00
2023-05-10T01:53:54.355Z,729.00
2023-05-10T01:54:54.392Z,749.00
2023-05-10T01:55:54.477Z,724.00
2023-05-10T01:56:54.577Z,747.00
2023-05-10T01:57:54.594Z,746.00
2023-05-10T01:58:54.647Z,739.00
2023-05-10T01:59:54.754Z,742.00
2023-05-10T02:00:54.884Z,742.00
2023-05-10T02:01:54.857Z,729.00
2023-05-10T02:02:54.984Z,737.00
2023-05-10T02:03:55.032Z,747.00
2023-05-10T02:04:55.041Z,736.00
2023-05-10T02:05:55.112Z,739.00
2023-05-10T02:06:55.155Z,734.00
2023-05-10T02:07:55.222Z,741.00
2023-05-10T02:08:55.275Z,735.00
2023-05-10T02:09:55.313Z,736.00
2023-05-10T02:10:55.416Z,741.00
2023-05-10T02:11:55.403Z,747.00
2023-05-10T02:12:55.479Z,733.00
2023-05-10T02:13:55.522Z,732.00
2023-05-10T02:14:55.522Z,756.00
2023-05-10T02:15:55.581Z,756.00
2023-05-10T02:16:55.687Z,751.00
2023-05-10T02:17:55.695Z,735.00
2023-05-10T02:18:55.693Z,729.00
2023-05-10T02:19:55.705Z,726.00
2023-05-10T02:20:55.880Z,745.00
2023-05-10T02:21:55.817Z,734.00
2023-05-10T02:22:55.893Z,745.00
2023-05-10T02:23:55.946Z,756.00
2023-05-10T02:24:55.975Z,749.00
2023-05-10T02:25:56.008Z,737.00
2023-05-10T02:26:56.015Z,736.00
2023-05-10T02:27:56.131Z,754.00
2023-05-10T02:28:56.189Z,740.00
2023-05-10T02:29:56.215Z,735.00
2023-05-10T02:30:56.207Z,753.00
2023-05-10T02:31:56.349Z,744.00
2023-05-10T02:32:56.322Z,743.00
2023-05-10T02:33:56.320Z,734.00
2023-05-10T02:34:56.485Z,751.00
2023-05-10T02:35:56.430Z,743.00
2023-05-10T02:36:56.490Z,743.00
2023-05-10T02:37:56.528Z,746.00
2023-05-10T02:38:56.543Z,746.00
2023-05-10T02:39:56.784Z,742.00
2023-05-10T02:40:56.618Z,744.00
2023-05-10T02:41:56.638Z,756.00
2023-05-10T02:42:56.683Z,748.00
2023-05-10T02:43:56.686Z,739.00
2023-05-10T02:44:56.754Z,744.00
2023-05-10T02:45:56.723Z,740.00
2023-05-10T02:46:56.732Z,757.00
2023-05-10T02:47:56.802Z,739.00
2023-05-10T02:48:56.724Z,741.00
2023-05-10T02:49:56.756Z,751.00
2023-05-10T02:50:56.806Z,761.00
2023-05-10T02:51:57.220Z,739.00
2023-05-10T02:52:56.857Z,746.00
2023-05-10T02:53:56.886Z,750.00
2023-05-10T02:54:56.950Z,748.00
2023-05-10T02:55:56.888Z,739.00
2023-05-10T02:56:56.950Z,742.00
2023-05-10T02:57:57.010Z,753.00
2023-05-10T02:58:56.992Z,750.00
2023-05-10T02:59:57.030Z,751.00
2023-05-10T03:00:57.066Z,745.00
2023-05-10T03:01:57.677Z,741.00
2023-05-10T03:02:57.245Z,746.00
2023-05-10T03:03:57.193Z,748.00
2023-05-10T03:04:57.421Z,744.00
2023-05-10T03:05:57.241Z,758.00
2023-05-10T03:06:57.317Z,764.00
2023-05-10T03:07:57.325Z,750.00
2023-05-10T03:08:57.338Z,749.00
2023-05-10T03:09:57.369Z,747.00
2023-05-10T03:10:57.449Z,757.00
2023-05-10T03:11:57.405Z,754.00
2023-05-10T03:12:57.449Z,754.00
2023-05-10T03:13:57.483Z,744.00
2023-05-10T03:14:57.484Z,747.00
2023-05-10T03:15:57.614Z,744.00
2023-05-10T03:16:57.495Z,759.00
2023-05-10T03:17:57.512Z,750.00
2023-05-10T03:18:57.550Z,756.00
2023-05-10T03:19:57.582Z,760.00
2023-05-10T03:20:57.554Z,753.00
2023-05-10T03:21:57.595Z,747.00
2023-05-10T03:22:57.538Z,748.00
2023-05-10T03:23:57.585Z,740.00
2023-05-10T03:24:57.549Z,750.00
2023-05-10T03:25:57.617Z,757.00
2023-05-10T03:26:57.669Z,747.00
2023-05-10T03:27:57.606Z,748.00
2023-05-10T03:28:57.613Z,752.00
2023-05-10T03:29:57.588Z,755.00
2023-05-10T03:30:57.706Z,754.00
2023-05-10T03:31:57.604Z,752.00
2023-05-10T03:32:57.681Z,740.00
2023-05-10T03:33:57.601Z,742.00
2023-05-10T03:34:57.577Z,750.00
2023-05-10T03:35:57.630Z,751.00
2023-05-10T03:36:57.621Z,754.00
2023-05-10T03:37:57.647Z,746.00
2023-05-10T03:38:57.645Z,755.00
2023-05-10T03:39:57.609Z,771.00
2023-05-10T03:40:57.653Z,766.00
2023-05-10T03:41:57.620Z,753.00
2023-05-10T03:42:57.561Z,753.00
2023-05-10T03:43:57.582Z,759.00
2023-05-10T03:44:57.587Z,759.00
2023-05-10T03:45:57.548Z,756.00
2023-05-10T03:46:57.775Z,752.00
2023-05-10T03:47:57.585Z,754.00
2023-05-10T03:48:57.534Z,754.00
2023-05-10T03:49:57.631Z,762.00
2023-05-10T03:50:57.554Z,753.00
2023-05-10T03:51:57.538Z,755.00
2023-05-10T03:52:57.571Z,760.00
2023-05-10T03:53:57.568Z,750.00
2023-05-10T03:54:57.542Z,747.00
2023-05-10T03:55:57.559Z,765.00
2023-05-10T03:56:57.768Z,762.00
2023-05-10T03:57:57.524Z,768.00
2023-05-10T03:58:57.510Z,749.00
2023-05-10T03:59:57.537Z,761.00
2023-05-10T04:00:57.554Z,765.00
2023-05-10T04:01:57.542Z,761.00
2023-05-10T04:02:57.586Z,756.00
2023-05-10T04:03:57.603Z,762.00
2023-05-10T04:04:57.531Z,756.00
2023-05-10T04:05:57.524Z,752.00
2023-05-10T04:06:57.532Z,758.00
2023-05-10T04:07:57.557Z,752.00
2023-05-10T04:08:57.551Z,765.00
2023-05-10T04:09:57.489Z,751.00
2023-05-10T04:10:57.511Z,746.00
2023-05-10T04:11:57.488Z,748.00
2023-05-10T04:12:57.553Z,754.00
2023-05-10T04:13:57.546Z,753.00
2023-05-10T04:14:57.521Z,744.00
2023-05-10T04:15:57.487Z,747.00
2023-05-10T04:16:57.644Z,732.00
2023-05-10T04:17:57.571Z,733.00
2023-05-10T04:18:57.511Z,746.00
2023-05-10T04:19:57.532Z,733.00
2023-05-10T04:20:57.481Z,738.00
2023-05-10T04:21:57.458Z,745.00
2023-05-10T04:22:57.489Z,734.00
2023-05-10T04:23:57.499Z,736.00
2023-05-10T04:24:57.483Z,733.00
2023-05-10T04:25:57.516Z,737.00
2023-05-10T04:26:57.988Z,731.00
2023-05-10T04:27:57.461Z,723.00
2023-05-10T04:28:57.472Z,737.00
2023-05-10T04:29:57.479Z,742.00
2023-05-10T04:30:57.555Z,747.00
2023-05-10T04:31:57.523Z,736.00
2023-05-10T04:32:57.607Z,740.00
2023-05-10T04:33:57.432Z,721.00
2023-05-10T04:34:57.632Z,734.00
2023-05-10T04:35:57.478Z,743.00
2023-05-10T04:36:57.477Z,726.00
2023-05-10T04:37:57.462Z,726.00
2023-05-10T04:38:57.459Z,734.00
2023-05-10T04:39:57.501Z,743.00
2023-05-10T04:40:57.464Z,741.00
2023-05-10T04:41:57.462Z,741.00
2023-05-10T04:42:57.468Z,727.00
2023-05-10T04:43:57.474Z,728.00
2023-05-10T04:44:57.492Z,738.00
2023-05-10T04:45:57.511Z,732.00
2023-05-10T04:46:57.488Z,726.00
2023-05-10T04:47:57.493Z,734.00
2023-05-10T04:48:57.463Z,739.00
2023-05-10T04:49:57.475Z,731.00
2023-05-10T04:50:57.414Z,741.00
2023-05-10T04:51:57.480Z,743.00
2023-05-10T04:52:57.451Z,750.00
2023-05-10T04:54:06.047Z,742.00
2023-05-10T04:54:58.468Z,742.00
2023-05-10T04:55:57.465Z,742.00
2023-05-10T04:56:57.448Z,733.00
2023-05-10T04:57:57.389Z,717.00
2023-05-10T04:58:57.430Z,661.00
2023-05-10T04:59:57.422Z,635.00
2023-05-10T05:00:57.379Z,617.00
2023-05-10T05:01:57.485Z,604.00
2023-05-10T05:02:57.459Z,596.00
2023-05-10T05:03:57.490Z,588.00
2023-05-10T05:04:57.414Z,574.00
2023-05-10T05:05:57.390Z,575.00
2023-05-10T05:06:57.361Z,555.00
2023-05-10T05:07:57.487Z,550.00
2023-05-10T05:08:57.378Z,556.00
2023-05-10T05:09:57.505Z,543.00
2023-05-10T05:10:57.464Z,539.00
2023-05-10T05:11:57.476Z,542.00
2023-05-10T05:12:57.547Z,535.00
2023-05-10T05:13:57.531Z,533.00
2023-05-10T05:14:57.582Z,539.00
2023-05-10T05:15:57.672Z,538.00
2023-05-10T05:16:57.588Z,530.00
2023-05-10T05:17:57.676Z,530.00
2023-05-10T05:18:57.642Z,527.00
2023-05-10T05:19:57.688Z,522.00
2023-05-10T05:20:57.724Z,527.00
2023-05-10T05:21:57.805Z,526.00
2023-05-10T05:22:57.809Z,525.00
2023-05-10T05:23:57.854Z,509.00
2023-05-10T05:24:57.885Z,508.00
2023-05-10T05:25:57.975Z,504.00
2023-05-10T05:26:58.076Z,501.00
2023-05-10T05:27:58.071Z,500.00
2023-05-10T05:28:58.150Z,500.00
2023-05-10T05:29:58.202Z,509.00
2023-05-10T05:30:58.268Z,510.00
2023-05-10T05:31:58.404Z,526.00
2023-05-10T05:32:58.477Z,539.00
2023-05-10T05:33:58.437Z,530.00
2023-05-10T05:34:58.466Z,533.00
2023-05-10T05:35:58.547Z,525.00
2023-05-10T05:36:58.817Z,515.00
2023-05-10T05:37:58.664Z,500.00
2023-05-10T05:38:58.724Z,509.00
2023-05-10T05:39:58.796Z,515.00
2023-05-10T05:40:58.899Z,499.00
2023-05-10T05:41:58.951Z,500.00
2023-05-10T05:42:58.961Z,509.00
2023-05-10T05:43:59.070Z,505.00
2023-05-10T05:44:59.038Z,505.00
2023-05-10T05:45:59.327Z,509.00
2023-05-10T05:46:59.084Z,533.00
2023-05-10T05:47:59.537Z,550.00
2023-05-10T05:48:59.286Z,571.00
2023-05-10T05:49:59.145Z,579.00
2023-05-10T05:50:59.154Z,596.00
2023-05-10T05:51:59.268Z,603.00
2023-05-10T05:52:59.346Z,621.00
2023-05-10T05:53:59.488Z,632.00
2023-05-10T05:54:59.598Z,650.00
2023-05-10T05:55:59.813Z,670.00
2023-05-10T05:57:01.179Z,714.00
2023-05-10T05:57:59.730Z,758.00
2023-05-10T05:58:59.886Z,788.00
2023-05-10T05:59:59.808Z,823.00
2023-05-10T06:00:59.811Z,852.00
2023-05-10T06:01:59.924Z,887.00
2023-05-10T06:03:00.472Z,941.00
2023-05-10T06:03:59.946Z,995.00
2023-05-10T06:05:00.364Z,1021.00
2023-05-10T06:05:59.886Z,1030.00
2023-05-10T06:06:59.904Z,1059.00
2023-05-10T06:07:59.892Z,1088.00
2023-05-10T06:08:59.921Z,1081.00
2023-05-10T06:10:00.326Z,1125.00
2023-05-10T06:10:59.923Z,1146.00
2023-05-10T06:11:59.948Z,1174.00
2023-05-10T06:13:00.335Z,1201.00
2023-05-10T06:13:59.960Z,1229.00
2023-05-10T06:14:59.949Z,1230.00
2023-05-10T06:15:59.952Z,1258.00
2023-05-10T06:17:00.005Z,1283.00
2023-05-10T06:18:00.210Z,1277.00
2023-05-10T06:19:00.031Z,1297.00
2023-05-10T06:20:00.142Z,1292.00
2023-05-10T06:21:00.139Z,1317.00
2023-05-10T06:22:00.244Z,1348.00
2023-05-10T06:23:00.270Z,1364.00
2023-05-10T06:24:00.329Z,1394.00
2023-05-10T06:25:00.372Z,1410.00
2023-05-10T06:26:00.461Z,1422.00
2023-05-10T06:27:00.500Z,1435.00
2023-05-10T06:28:00.596Z,1472.00
2023-05-10T06:29:00.612Z,1469.00
2023-05-10T06:30:11.594Z,1489.00
2023-05-10T06:31:01.670Z,1491.00
2023-05-10T06:32:00.634Z,1496.00
2023-05-10T06:33:00.677Z,1508.00
2023-05-10T06:34:00.647Z,1552.00
2023-05-10T06:35:00.586Z,1573.00
2023-05-10T06:36:00.599Z,1567.00
2023-05-10T06:37:00.612Z,1554.00
2023-05-10T06:38:00.612Z,1533.00
2023-05-10T06:39:00.629Z,1387.00
2023-05-10T06:40:00.622Z,1225.00
2023-05-10T06:41:00.708Z,1170.00
2023-05-10T06:42:00.677Z,1163.00
2023-05-10T06:43:00.680Z,1116.00
2023-05-10T06:44:00.811Z,1076.00
2023-05-10T06:45:00.713Z,1066.00
2023-05-10T06:46:00.835Z,1063.00
2023-05-10T06:47:00.792Z,1061.00
2023-05-10T06:48:00.738Z,1058.00
2023-05-10T06:49:00.694Z,1101.00
2023-05-10T06:50:00.817Z,1117.00
2023-05-10T06:51:00.714Z,1113.00
2023-05-10T06:52:00.715Z,1112.00
2023-05-10T06:53:00.705Z,1123.00
2023-05-10T06:54:00.671Z,1110.00
2023-05-10T06:55:00.742Z,1098.00
2023-05-10T06:56:00.750Z,1090.00
2023-05-10T06:57:01.851Z,1093.00
2023-05-10T06:58:00.701Z,1097.00
2023-05-10T06:59:00.781Z,1089.00
2023-05-10T07:00:00.739Z,1124.00
2023-05-10T07:01:00.682Z,1162.00
2023-05-10T07:02:00.684Z,1142.00
2023-05-10T07:03:00.913Z,1107.00
2023-05-10T07:04:00.805Z,1073.00
2023-05-10T07:05:02.874Z,1073.00
2023-05-10T07:06:01.669Z,1073.00
2023-05-10T07:07:00.653Z,1057.00
2023-05-10T07:08:00.667Z,1043.00
2023-05-10T07:09:00.671Z,1028.00
2023-05-10T07:10:00.617Z,1003.00
2023-05-10T07:11:00.642Z,984.00
2023-05-10T07:12:00.646Z,1082.00
2023-05-10T07:13:00.708Z,1123.00
2023-05-10T07:14:00.626Z,1147.00
2023-05-10T07:15:00.611Z,1155.00
2023-05-10T07:16:00.634Z,1160.00
2023-05-10T07:17:00.576Z,1185.00
2023-05-10T07:18:00.778Z,1189.00
2023-05-10T07:19:00.649Z,1200.00
2023-05-10T07:20:00.795Z,1212.00
2023-05-10T07:21:00.763Z,1220.00
2023-05-10T07:22:00.813Z,1248.00
2023-05-10T07:23:00.954Z,1266.00
2023-05-10T07:24:00.877Z,1280.00
2023-05-10T07:25:01.004Z,1289.00
2023-05-10T07:26:01.381Z,1300.00
2023-05-10T07:27:01.079Z,1324.00
2023-05-10T07:28:01.423Z,1337.00
2023-05-10T07:29:01.163Z,1349.00
2023-05-10T07:30:01.243Z,1386.00
2023-05-10T07:31:01.366Z,1388.00
2023-05-10T07:32:01.352Z,1294.00
2023-05-10T07:33:01.370Z,1187.00
2023-05-10T07:34:01.678Z,1108.00
2023-05-10T07:35:01.427Z,1040.00
2023-05-10T07:36:01.454Z,980.00
2023-05-10T07:37:01.482Z,955.00
2023-05-10T07:38:01.490Z,914.00
2023-05-10T07:39:01.731Z,892.00
2023-05-10T07:40:01.561Z,925.00
2023-05-10T07:41:01.553Z,931.00
2023-05-10T07:42:01.607Z,912.00
2023-05-10T07:43:01.678Z,942.00
2023-05-10T07:44:01.624Z,965.00
2023-05-10T07:45:01.729Z,941.00
2023-05-10T07:46:01.753Z,949.00
2023-05-10T07:47:01.716Z,945.00
2023-05-10T07:48:01.805Z,919.00
2023-05-10T07:49:01.734Z,883.00
2023-05-10T07:50:01.777Z,894.00
2023-05-10T07:51:01.723Z,888.00
2023-05-10T07:52:01.740Z,908.00
2023-05-10T07:53:01.758Z,903.00
2023-05-10T07:54:01.750Z,881.00
2023-05-10T07:55:01.774Z,865.00
2023-05-10T07:56:01.810Z,858.00
2023-05-10T07:57:01.716Z,863.00
2023-05-10T07:58:01.710Z,882.00
2023-05-10T07:59:01.742Z,889.00
2023-05-10T08:00:01.727Z,892.00
2023-05-10T08:01:01.817Z,904.00
2023-05-10T08:02:01.845Z,919.00
2023-05-10T08:03:01.902Z,937.00
2023-05-10T08:04:02.587Z,949.00
2023-05-10T08:05:01.815Z,951.00
2023-05-10T08:06:01.868Z,943.00
2023-05-10T08:07:02.053Z,948.00
2023-05-10T08:08:01.956Z,953.00
2023-05-10T08:09:02.049Z,977.00
2023-05-10T08:10:02.084Z,1005.00
2023-05-10T08:11:02.175Z,1018.00
2023-05-10T08:12:02.345Z,987.00
2023-05-10T08:13:02.353Z,982.00
2023-05-10T08:14:02.408Z,1040.00
2023-05-10T08:15:02.421Z,1048.00
2023-05-10T08:16:02.489Z,1053.00
2023-05-10T08:17:02.513Z,1063.00
2023-05-10T08:18:02.905Z,1071.00
2023-05-10T08:19:02.734Z,1101.00
2023-05-10T08:20:02.715Z,1126.00
2023-05-10T08:21:02.759Z,1130.00
2023-05-10T08:22:03.051Z,1135.00
2023-05-10T08:23:02.960Z,1121.00
2023-05-10T08:24:02.940Z,1133.00
2023-05-10T08:25:03.050Z,1179.00
2023-05-10T08:26:03.108Z,1084.00
2023-05-10T08:27:03.160Z,994.00
2023-05-10T08:28:03.168Z,959.00
2023-05-10T08:29:03.183Z,899.00
2023-05-10T08:30:03.154Z,869.00
2023-05-10T08:31:03.257Z,871.00
2023-05-10T08:32:03.230Z,843.00
2023-05-10T08:33:03.373Z,784.00
2023-05-10T08:34:03.354Z,765.00
2023-05-10T08:35:04.037Z,673.00
2023-05-10T08:36:03.459Z,677.00
2023-05-10T08:37:03.511Z,703.00
2023-05-10T08:38:03.551Z,736.00
2023-05-10T08:39:03.584Z,726.00
2023-05-10T08:40:03.691Z,778.00
2023-05-10T08:41:03.706Z,838.00
2023-05-10T08:42:03.724Z,850.00
2023-05-10T08:43:03.850Z,823.00
2023-05-10T08:44:03.828Z,874.00
2023-05-10T08:45:05.360Z,872.00
2023-05-10T08:46:03.993Z,914.00
2023-05-10T08:47:03.964Z,956.00
2023-05-10T08:48:04.845Z,976.00
2023-05-10T08:49:03.917Z,1025.00
2023-05-10T08:50:03.939Z,1025.00
2023-05-10T08:51:03.925Z,1060.00
2023-05-10T08:52:03.898Z,1099.00
2023-05-10T08:53:03.900Z,1109.00
2023-05-10T08:54:03.963Z,1147.00
2023-05-10T08:55:04.017Z,1161.00
2023-05-10T08:56:04.065Z,1181.00
2023-05-10T08:57:04.147Z,1226.00
2023-05-10T08:58:04.872Z,1243.00
2023-05-10T08:59:04.256Z,1240.00
2023-05-10T09:00:04.301Z,1269.00
2023-05-10T09:01:04.375Z,1303.00
2023-05-10T09:02:04.371Z,1329.00
2023-05-10T09:03:04.451Z,1346.00
2023-05-10T09:04:04.526Z,1375.00
2023-05-10T09:05:04.699Z,1398.00
2023-05-10T09:06:04.605Z,1424.00
2023-05-10T09:07:04.552Z,1458.00
2023-05-10T09:08:04.664Z,1456.00
2023-05-10T09:09:04.625Z,1436.00
2023-05-10T09:10:04.842Z,1459.00
2023-05-10T09:11:04.762Z,1516.00
2023-05-10T09:12:04.772Z,1522.00
2023-05-10T09:13:04.762Z,1511.00
2023-05-10T09:14:04.762Z,1651.00
2023-05-10T09:15:04.936Z,1666.00
2023-05-10T09:16:19.912Z,1696.00
2023-05-10T09:17:05.854Z,1696.00
2023-05-10T09:18:04.791Z,1612.00
2023-05-10T09:19:04.845Z,1462.00
2023-05-10T09:20:05.361Z,1412.00
2023-05-10T09:21:04.954Z,1354.00
2023-05-10T09:22:04.756Z,1275.00
2023-05-10T09:23:04.772Z,1240.00
2023-05-10T09:24:04.723Z,1190.00
2023-05-10T09:25:04.731Z,1170.00
2023-05-10T09:26:04.734Z,1118.00
2023-05-10T09:27:04.903Z,1148.00
2023-05-10T09:28:04.693Z,1197.00
2023-05-10T09:29:04.715Z,1263.00
2023-05-10T09:30:04.688Z,1322.00
2023-05-10T09:31:04.708Z,1348.00
2023-05-10T09:32:04.712Z,1372.00
2023-05-10T09:33:04.872Z,1373.00
2023-05-10T09:34:04.787Z,1170.00
2023-05-10T09:35:04.864Z,1049.00
2023-05-10T09:36:04.903Z,937.00
2023-05-10T09:37:04.920Z,860.00
2023-05-10T09:38:04.969Z,821.00
2023-05-10T09:39:04.939Z,849.00
2023-05-10T09:40:04.950Z,880.00
2023-05-10T09:41:05.008Z,896.00
2023-05-10T09:42:04.983Z,929.00
2023-05-10T09:43:04.965Z,945.00
2023-05-10T09:44:05.070Z,986.00
2023-05-10T09:45:05.165Z,996.00
2023-05-10T09:46:05.177Z,1008.00
2023-05-10T09:47:05.198Z,1023.00
2023-05-10T09:48:05.257Z,1017.00
2023-05-10T09:49:05.318Z,1041.00
2023-05-10T09:50:05.318Z,1021.00
2023-05-10T09:51:05.380Z,1076.00
2023-05-10T09:52:05.433Z,1091.00
2023-05-10T09:53:05.582Z,1122.00
2023-05-10T09:54:05.539Z,1137.00
2023-05-10T09:55:05.659Z,1158.00
2023-05-10T09:56:05.607Z,1170.00
2023-05-10T09:57:06.410Z,1179.00
2023-05-10T09:58:05.682Z,1201.00
2023-05-10T09:59:05.720Z,1202.00
2023-05-10T10:00:05.824Z,1215.00
2023-05-10T10:01:05.849Z,1253.00
2023-05-10T10:02:05.885Z,1254.00
2023-05-10T10:03:06.549Z,1273.00
2023-05-10T10:04:05.957Z,1299.00
2023-05-10T10:05:05.866Z,1312.00
2023-05-10T10:06:09.420Z,1319.00
2023-05-10T10:07:06.934Z,1321.00
2023-05-10T10:08:05.891Z,1329.00
2023-05-10T10:09:05.897Z,1340.00
2023-05-10T10:10:05.795Z,1364.00
2023-05-10T10:11:05.800Z,1407.00
2023-05-10T10:12:05.846Z,1426.00
2023-05-10T10:13:05.840Z,1435.00
2023-05-10T10:14:05.951Z,1445.00
2023-05-10T10:15:05.796Z,1455.00
2023-05-10T10:16:05.906Z,1465.00
2023-05-10T10:17:08.737Z,1479.00
2023-05-10T10:18:05.937Z,1494.00
2023-05-10T10:19:05.776Z,1504.00
2023-05-10T10:20:05.781Z,1510.00
2023-05-10T10:21:05.973Z,1519.00
2023-05-10T10:22:05.928Z,1534.00
2023-05-10T10:23:05.747Z,1538.00
2023-05-10T10:24:05.794Z,1536.00
2023-05-10T10:25:06.411Z,1544.00
2023-05-10T10:26:06.452Z,1551.00
2023-05-10T10:27:05.776Z,1555.00
2023-05-10T10:28:05.723Z,1550.00
2023-05-10T10:29:05.727Z,1549.00
2023-05-10T10:30:05.906Z,1481.00
2023-05-10T10:31:05.724Z,1451.00
2023-05-10T10:32:06.430Z,1345.00
2023-05-10T10:33:13.546Z,1228.00
2023-05-10T10:34:06.698Z,1230.00
2023-05-10T10:35:06.342Z,1237.00
2023-05-10T10:36:05.668Z,1257.00
2023-05-10T10:37:05.669Z,1308.00
2023-05-10T10:38:05.647Z,1403.00
2023-05-10T10:39:05.646Z,1417.00
2023-05-10T10:40:05.664Z,1418.00
2023-05-10T10:41:05.922Z,1416.00
2023-05-10T10:42:05.726Z,1417.00
2023-05-10T10:43:05.605Z,1424.00
2023-05-10T10:44:05.626Z,1451.00
2023-05-10T10:45:05.598Z,1467.00
2023-05-10T10:46:05.600Z,1464.00
2023-05-10T10:47:05.604Z,1445.00
2023-05-10T10:48:05.666Z,1453.00
2023-05-10T10:49:05.963Z,1491.00
2023-05-10T10:50:05.571Z,1509.00
2023-05-10T10:51:05.577Z,2484.00
2023-05-10T10:52:05.591Z,1965.00
2023-05-10T10:53:05.637Z,1748.00
2023-05-10T10:54:05.585Z,1690.00
2023-05-10T10:55:05.567Z,1649.00
2023-05-10T10:56:05.575Z,1609.00
2023-05-10T10:57:05.579Z,1607.00
2023-05-10T10:58:05.525Z,1619.00
2023-05-10T10:59:05.535Z,1602.00
2023-05-10T11:00:05.537Z,1620.00
2023-05-10T11:01:05.587Z,1624.00
2023-05-10T11:02:05.503Z,1630.00
2023-05-10T11:03:05.705Z,1638.00
2023-05-10T11:04:05.515Z,1658.00
2023-05-10T11:05:05.551Z,1661.00
2023-05-10T11:06:05.486Z,1676.00
2023-05-10T11:07:05.483Z,1683.00
2023-05-10T11:08:05.499Z,1705.00
2023-05-10T11:09:05.446Z,1715.00
2023-05-10T11:10:05.511Z,1744.00
2023-05-10T11:11:05.922Z,1737.00
2023-05-10T11:12:06.426Z,1741.00
2023-05-10T11:13:05.440Z,1741.00
2023-05-10T11:14:05.431Z,1768.00
2023-05-10T11:15:05.437Z,1786.00
2023-05-10T11:16:05.444Z,1792.00
2023-05-10T11:17:05.461Z,1832.00
2023-05-10T11:18:05.482Z,1819.00
2023-05-10T11:19:05.603Z,1821.00
2023-05-10T11:20:05.457Z,1784.00
2023-05-10T11:21:05.472Z,1711.00
2023-05-10T11:22:05.488Z,1605.00
2023-05-10T11:23:05.486Z,1495.00
2023-05-10T11:24:05.484Z,1338.00
2023-05-10T11:25:05.509Z,1122.00
2023-05-10T11:26:05.548Z,1021.00
2023-05-10T11:27:05.575Z,892.00
2023-05-10T11:28:05.617Z,782.00
2023-05-10T11:29:05.678Z,654.00
2023-05-10T11:30:05.719Z,612.00
2023-05-10T11:31:05.834Z,563.00
2023-05-10T11:32:05.732Z,537.00
2023-05-10T11:33:05.846Z,515.00
2023-05-10T11:34:05.770Z,500.00
2023-05-10T11:35:05.822Z,505.00
2023-05-10T11:36:05.786Z,501.00
2023-05-10T11:37:05.825Z,501.00
2023-05-10T11:38:05.852Z,500.00
2023-05-10T11:39:05.866Z,499.00
2023-05-10T11:40:05.848Z,500.00
2023-05-10T11:41:05.875Z,503.00
2023-05-10T11:42:05.951Z,500.00
2023-05-10T11:43:05.943Z,500.00
2023-05-10T11:44:05.952Z,501.00
2023-05-10T11:45:05.940Z,503.00
2023-05-10T11:46:06.028Z,503.00
2023-05-10T11:47:06.021Z,499.00
2023-05-10T11:48:06.106Z,515.00
2023-05-10T11:49:06.016Z,500.00
2023-05-10T11:50:06.083Z,514.00
2023-05-10T11:51:06.093Z,505.00
2023-05-10T11:52:06.142Z,511.00
2023-05-10T11:53:06.211Z,497.00
2023-05-10T11:54:06.162Z,500.00
2023-05-10T11:55:06.269Z,520.00
2023-05-10T11:56:06.226Z,508.00
2023-05-10T11:57:06.287Z,497.00
2023-05-10T11:58:06.314Z,500.00
2023-05-10T11:59:06.343Z,505.00
2023-05-10T12:00:06.343Z,515.00
2023-05-10T12:01:06.450Z,530.00
2023-05-10T12:02:06.485Z,536.00
2023-05-10T12:03:06.555Z,561.00
2023-05-10T12:04:06.837Z,612.00
2023-05-10T12:05:06.672Z,658.00
2023-05-10T12:06:06.598Z,663.00
2023-05-10T12:07:06.716Z,663.00
2023-05-10T12:08:06.628Z,712.00
2023-05-10T12:09:06.669Z,790.00
2023-05-10T12:10:06.728Z,816.00
2023-05-10T12:11:06.701Z,874.00
2023-05-10T12:12:06.727Z,940.00
2023-05-10T12:13:08.170Z,993.00
2023-05-10T12:14:06.711Z,987.00
2023-05-10T12:15:06.746Z,1106.00
2023-05-10T12:16:06.756Z,1167.00
2023-05-10T12:17:06.725Z,1219.00
2023-05-10T12:18:06.768Z,1311.00
2023-05-10T12:19:06.820Z,1381.00
2023-05-10T12:20:06.793Z,1450.00
2023-05-10T12:21:06.861Z,1516.00